createdAt,value
2019-01-11T00:01:44.571Z,83.80
2019-01-11T00:03:49.287Z,83.90
2019-01-11T00:05:53.726Z,84.00
2019-01-11T00:07:58.234Z,84.00
2019-01-11T00:10:02.559Z,84.10
2019-01-11T00:12:07.026Z,84.10
2019-01-11T00:14:11.408Z,84.20
2019-01-11T00:16:15.746Z,84.20
2019-01-11T00:18:20.174Z,84.30
2019-01-11T00:20:24.581Z,84.50
2019-01-11T00:22:29.018Z,84.50
2019-01-11T00:24:33.453Z,84.70
2019-01-11T00:26:38.483Z,84.60
2019-01-11T00:28:44.199Z,84.50
2019-01-11T00:30:47.330Z,84.60
2019-01-11T00:32:51.686Z,84.60
2019-01-11T00:34:56.067Z,84.90
2019-01-11T00:37:00.399Z,85.00
2019-01-11T00:39:06.446Z,85.00
2019-01-11T00:41:10.827Z,85.10
2019-01-11T00:43:15.366Z,85.00
2019-01-11T00:45:19.545Z,85.00
2019-01-11T00:47:23.925Z,84.90
2019-01-11T00:49:28.290Z,85.00
2019-01-11T00:51:32.735Z,85.00
2019-01-11T00:53:37.152Z,85.00
2019-01-11T00:55:41.518Z,85.20
2019-01-11T00:57:45.961Z,85.30
2019-01-11T00:59:50.443Z,85.50
2019-01-11T01:01:54.814Z,85.20
2019-01-11T01:03:59.182Z,85.30
2019-01-11T01:06:03.574Z,85.30
2019-01-11T01:08:07.981Z,85.30
2019-01-11T01:10:12.455Z,85.40
2019-01-11T01:12:16.879Z,85.20
2019-01-11T01:14:21.249Z,84.80
2019-01-11T01:16:25.586Z,84.80
2019-01-11T01:18:29.970Z,84.80
2019-01-11T01:20:34.391Z,84.80
2019-01-11T01:22:38.839Z,84.80
2019-01-11T01:24:43.254Z,84.80
2019-01-11T01:26:47.739Z,84.90
2019-01-11T01:28:52.182Z,84.90
2019-01-11T01:30:56.552Z,84.90
2019-01-11T01:33:00.904Z,85.10
2019-01-11T01:35:05.625Z,84.90
2019-01-11T01:37:10.021Z,84.80
2019-01-11T01:39:14.385Z,84.90
2019-01-11T01:41:18.852Z,84.90
2019-01-11T01:43:23.231Z,84.90
2019-01-11T01:45:27.614Z,84.90
2019-01-11T01:47:32.033Z,84.90
2019-01-11T01:49:36.457Z,84.90
2019-01-11T01:51:40.878Z,85.00
2019-01-11T01:53:45.290Z,85.00
2019-01-11T01:55:49.677Z,85.10
2019-01-11T01:57:54.083Z,85.10
2019-01-11T01:59:58.454Z,86.00
2019-01-11T02:02:02.841Z,85.20
2019-01-11T02:04:07.219Z,85.30
2019-01-11T02:06:11.643Z,85.40
2019-01-11T02:08:16.009Z,85.20
2019-01-11T02:10:20.466Z,85.40
2019-01-11T02:12:24.891Z,85.30
2019-01-11T02:14:29.251Z,85.40
2019-01-11T02:16:33.590Z,85.50
2019-01-11T02:18:37.955Z,85.60
2019-01-11T02:20:42.309Z,85.60
2019-01-11T02:22:46.736Z,86.20
2019-01-11T02:24:51.194Z,85.80
2019-01-11T02:26:55.611Z,86.00
2019-01-11T02:28:59.993Z,85.90
2019-01-11T02:31:04.382Z,85.80
2019-01-11T02:33:08.725Z,85.90
2019-01-11T02:35:13.150Z,85.90
2019-01-11T02:37:17.496Z,86.20
2019-01-11T02:39:21.874Z,86.20
2019-01-11T02:41:26.255Z,86.20
2019-01-11T02:43:30.647Z,86.10
2019-01-11T02:45:35.027Z,86.20
2019-01-11T02:47:39.382Z,86.20
2019-01-11T02:49:43.890Z,86.30
2019-01-11T02:51:48.264Z,86.30
2019-01-11T02:53:52.761Z,86.40
2019-01-11T02:55:57.097Z,86.40
2019-01-11T02:58:01.461Z,86.50
2019-01-11T03:00:10.212Z,86.70
2019-01-11T03:02:14.581Z,86.60
2019-01-11T03:04:18.951Z,86.70
2019-01-11T03:06:23.336Z,86.80
2019-01-11T03:08:27.702Z,86.90
2019-01-11T03:10:32.104Z,87.60
2019-01-11T03:12:36.431Z,86.90
2019-01-11T03:14:40.962Z,87.00
2019-01-11T03:16:45.386Z,86.80
2019-01-11T03:18:49.752Z,86.90
2019-01-11T03:20:54.213Z,86.90
2019-01-11T03:22:58.619Z,87.10
2019-01-11T03:25:03.087Z,86.80
2019-01-11T03:27:07.471Z,86.80
2019-01-11T03:29:11.849Z,86.90
2019-01-11T03:31:23.169Z,86.80
2019-01-11T03:33:27.531Z,86.90
2019-01-11T03:35:32.025Z,87.00
2019-01-11T03:37:36.432Z,87.00
2019-01-11T03:39:40.823Z,87.10
2019-01-11T03:41:52.999Z,87.10
2019-01-11T03:43:57.356Z,87.90
2019-01-11T03:46:01.739Z,87.30
2019-01-11T03:48:06.118Z,87.40
2019-01-11T03:50:10.747Z,87.40
2019-01-11T03:52:15.160Z,87.50
2019-01-11T03:54:19.495Z,87.50
2019-01-11T03:56:23.907Z,87.60
2019-01-11T03:58:28.339Z,87.70
2019-01-11T04:00:32.666Z,87.70
2019-01-11T04:02:37.084Z,87.70
2019-01-11T04:04:41.495Z,87.90
2019-01-11T04:06:45.886Z,87.70
2019-01-11T04:08:50.280Z,87.90
2019-01-11T04:10:54.679Z,87.90
2019-01-11T04:12:59.020Z,87.90
2019-01-11T04:15:03.457Z,88.20
2019-01-11T04:17:07.809Z,88.10
2019-01-11T04:19:14.518Z,88.20
2019-01-11T04:21:18.903Z,88.20
2019-01-11T04:23:23.293Z,88.20
2019-01-11T04:25:30.754Z,88.40
2019-01-11T04:27:35.240Z,88.40
2019-01-11T04:29:39.571Z,88.30
2019-01-11T04:31:43.977Z,88.40
2019-01-11T04:33:48.328Z,88.50
2019-01-11T04:35:52.695Z,88.60
2019-01-11T04:37:57.109Z,88.60
2019-01-11T04:40:01.466Z,88.60
2019-01-11T04:42:05.890Z,88.50
2019-01-11T04:44:10.302Z,88.60
2019-01-11T04:46:14.677Z,88.70
2019-01-11T04:48:19.047Z,88.70
2019-01-11T04:50:23.415Z,88.60
2019-01-11T04:52:27.812Z,88.50
2019-01-11T04:54:32.190Z,88.50
2019-01-11T04:56:36.570Z,88.50
2019-01-11T04:58:40.935Z,88.60
2019-01-11T05:00:45.321Z,88.50
2019-01-11T05:02:49.753Z,88.10
2019-01-11T05:04:54.162Z,88.80
2019-01-11T05:06:58.598Z,88.40
2019-01-11T05:09:02.997Z,88.60
2019-01-11T05:11:07.347Z,88.60
2019-01-11T05:13:20.803Z,88.70
2019-01-11T05:15:25.137Z,88.80
2019-01-11T05:17:29.535Z,88.80
2019-01-11T05:19:33.912Z,88.70
2019-01-11T05:21:38.237Z,88.80
2019-01-11T05:23:45.392Z,88.70
2019-01-11T05:25:49.769Z,88.90
2019-01-11T05:27:54.121Z,89.70
2019-01-11T05:29:58.527Z,89.10
2019-01-11T05:32:02.914Z,88.90
2019-01-11T05:34:07.230Z,89.00
2019-01-11T05:36:11.642Z,88.90
2019-01-11T05:38:15.997Z,88.90
2019-01-11T05:40:20.391Z,88.80
2019-01-11T05:42:24.927Z,88.80
2019-01-11T05:44:29.286Z,88.70
2019-01-11T05:46:33.689Z,88.80
2019-01-11T05:48:38.009Z,88.80
2019-01-11T05:50:43.590Z,88.70
2019-01-11T05:52:47.980Z,88.80
2019-01-11T05:54:52.318Z,88.70
2019-01-11T05:56:56.756Z,88.80
2019-01-11T05:59:05.978Z,89.10
2019-01-11T06:01:10.466Z,88.90
2019-01-11T06:03:14.902Z,89.00
2019-01-11T06:05:19.327Z,89.20
2019-01-11T06:07:26.703Z,89.20
2019-01-11T06:09:31.121Z,89.20
2019-01-11T06:11:35.587Z,89.30
2019-01-11T06:13:39.962Z,89.30
2019-01-11T06:15:44.976Z,89.20
2019-01-11T06:17:49.388Z,89.30
2019-01-11T06:19:53.781Z,89.60
2019-01-11T06:21:58.143Z,89.60
2019-01-11T06:24:02.650Z,89.70
2019-01-11T06:26:07.013Z,89.60
2019-01-11T06:28:11.449Z,89.70
2019-01-11T06:30:15.920Z,89.60
2019-01-11T06:32:20.318Z,89.70
2019-01-11T06:34:24.666Z,89.40
2019-01-11T06:36:29.040Z,89.60
2019-01-11T06:38:33.434Z,89.80
2019-01-11T06:40:37.806Z,89.80
2019-01-11T06:42:42.194Z,89.90
2019-01-11T06:44:47.150Z,89.80
2019-01-11T06:46:51.514Z,90.00
2019-01-11T06:48:55.881Z,90.00
2019-01-11T06:51:00.217Z,90.00
2019-01-11T06:53:04.798Z,90.00
2019-01-11T06:55:09.609Z,90.00
2019-01-11T06:57:13.995Z,90.00
2019-01-11T06:59:18.371Z,90.10
2019-01-11T07:01:22.742Z,90.10
2019-01-11T07:03:27.121Z,90.10
2019-01-11T07:05:31.495Z,90.10
2019-01-11T07:07:35.903Z,90.00
2019-01-11T07:09:40.310Z,90.00
2019-01-11T07:11:44.654Z,90.00
2019-01-11T07:13:50.176Z,90.00
2019-01-11T07:15:54.728Z,90.10
2019-01-11T07:17:59.159Z,90.00
2019-01-11T07:20:05.651Z,90.00
2019-01-11T07:22:08.146Z,90.00
2019-01-11T07:24:12.514Z,90.10
2019-01-11T07:26:16.930Z,90.10
2019-01-11T07:28:21.311Z,90.10
2019-01-11T07:30:30.291Z,90.00
2019-01-11T07:32:34.682Z,90.10
2019-01-11T07:34:39.134Z,90.10
2019-01-11T07:36:46.840Z,90.10
2019-01-11T07:38:51.879Z,90.20
2019-01-11T07:40:56.296Z,90.10
2019-01-11T07:43:00.706Z,90.10
2019-01-11T07:45:06.064Z,90.10
2019-01-11T07:47:10.489Z,90.10
2019-01-11T07:49:14.914Z,90.10
2019-01-11T07:51:19.304Z,90.20
2019-01-11T07:53:23.718Z,90.30
2019-01-11T07:55:28.134Z,90.40
2019-01-11T07:57:32.502Z,90.30
2019-01-11T07:59:36.870Z,90.30
2019-01-11T08:01:41.286Z,90.30
2019-01-11T08:03:45.682Z,90.30
2019-01-11T08:05:50.041Z,90.30
2019-01-11T08:07:54.432Z,90.30
2019-01-11T08:09:58.798Z,90.40
2019-01-11T08:12:03.170Z,90.40
2019-01-11T08:14:08.561Z,90.30
2019-01-11T08:16:13.005Z,90.30
2019-01-11T08:18:17.433Z,90.30
2019-01-11T08:20:21.870Z,90.30
2019-01-11T08:22:33.357Z,90.40
2019-01-11T08:24:37.818Z,90.40
2019-01-11T08:26:42.194Z,90.30
2019-01-11T08:28:46.568Z,90.30
2019-01-11T08:30:50.978Z,90.40
2019-01-11T08:32:55.338Z,90.30
2019-01-11T08:34:59.702Z,90.30
2019-01-11T08:37:04.109Z,90.30
2019-01-11T08:39:09.326Z,90.30
2019-01-11T08:41:13.742Z,90.30
2019-01-11T08:43:18.103Z,90.30
2019-01-11T08:45:22.519Z,90.30
2019-01-11T08:47:26.902Z,90.30
2019-01-11T08:49:31.308Z,90.30
2019-01-11T08:51:37.953Z,90.30
2019-01-11T08:53:42.894Z,90.30
2019-01-11T08:55:47.397Z,90.30
2019-01-11T08:57:51.766Z,90.30
2019-01-11T08:59:56.458Z,90.30
2019-01-11T09:02:00.864Z,90.20
2019-01-11T09:04:05.344Z,90.40
2019-01-11T09:06:09.773Z,90.30
2019-01-11T09:08:14.175Z,90.30
2019-01-11T09:10:22.611Z,90.30
2019-01-11T09:12:23.140Z,90.20
2019-01-11T09:14:31.694Z,90.20
2019-01-11T09:16:36.103Z,90.30
2019-01-11T09:18:45.161Z,90.40
2019-01-11T09:20:49.561Z,90.40
2019-01-11T09:22:53.950Z,90.30
2019-01-11T09:24:58.388Z,90.30
2019-01-11T09:27:03.083Z,90.40
2019-01-11T09:29:08.425Z,90.30
2019-01-11T09:31:13.496Z,90.40
2019-01-11T09:33:20.727Z,90.10
2019-01-11T09:35:23.954Z,90.40
2019-01-11T09:37:28.945Z,90.40
2019-01-11T09:39:33.970Z,90.40
2019-01-11T09:41:39.871Z,90.50
2019-01-11T09:43:44.827Z,90.70
2019-01-11T09:45:50.059Z,90.70
2019-01-11T09:47:55.002Z,90.70
2019-01-11T09:50:00.512Z,90.70
2019-01-11T09:52:05.481Z,90.70
2019-01-11T09:54:10.471Z,90.70
2019-01-11T09:56:15.133Z,90.60
2019-01-11T09:58:21.011Z,90.60
2019-01-11T10:00:26.891Z,90.60
2019-01-11T10:02:35.894Z,90.60
2019-01-11T10:04:40.835Z,90.60
2019-01-11T10:06:49.335Z,90.60
2019-01-11T10:08:53.734Z,90.70
2019-01-11T10:10:58.225Z,90.60
2019-01-11T10:13:02.626Z,90.60
2019-01-11T10:15:07.909Z,90.50
2019-01-11T10:17:12.334Z,90.60
2019-01-11T10:19:16.671Z,90.50
2019-01-11T10:21:23.083Z,90.50
2019-01-11T10:23:25.631Z,90.50
2019-01-11T10:25:30.020Z,90.60
2019-01-11T10:27:34.373Z,90.70
2019-01-11T10:29:38.834Z,90.70
2019-01-11T10:31:43.417Z,90.60
2019-01-11T10:33:47.913Z,90.60
2019-01-11T10:35:52.709Z,90.60
2019-01-11T10:37:57.347Z,90.70
2019-01-11T10:40:02.051Z,90.80
2019-01-11T10:42:06.549Z,90.80
2019-01-11T10:44:10.964Z,90.90
2019-01-11T10:46:23.486Z,90.90
2019-01-11T10:48:27.960Z,90.90
2019-01-11T10:50:32.391Z,90.90
2019-01-11T10:52:36.839Z,90.80
2019-01-11T10:54:42.635Z,90.80
2019-01-11T10:56:47.110Z,90.90
2019-01-11T10:58:51.484Z,91.00
2019-01-11T11:00:55.874Z,91.00
2019-01-11T11:03:02.937Z,90.90
2019-01-11T11:05:07.588Z,90.90
2019-01-11T11:07:12.017Z,91.00
2019-01-11T11:09:16.487Z,90.90
2019-01-11T11:11:20.882Z,91.00
2019-01-11T11:13:25.688Z,91.00
2019-01-11T11:15:30.470Z,91.00
2019-01-11T11:17:35.905Z,91.00
2019-01-11T11:19:40.396Z,90.90
2019-01-11T11:21:45.245Z,91.00
2019-01-11T11:23:53.941Z,91.00
2019-01-11T11:25:55.131Z,91.10
2019-01-11T11:27:59.600Z,91.00
2019-01-11T11:30:04.438Z,91.30
2019-01-11T11:32:08.906Z,91.00
2019-01-11T11:34:13.637Z,91.00
2019-01-11T11:36:18.628Z,91.00
2019-01-11T11:38:23.009Z,90.90
2019-01-11T11:40:28.378Z,90.90
2019-01-11T11:42:32.827Z,90.90
2019-01-11T11:44:37.240Z,91.00
2019-01-11T11:46:41.647Z,91.00
2019-01-11T11:48:46.034Z,91.10
2019-01-11T11:50:50.742Z,91.00
2019-01-11T11:52:55.185Z,91.00
2019-01-11T11:54:59.687Z,91.00
2019-01-11T11:57:04.147Z,91.00
2019-01-11T11:59:08.550Z,91.00
2019-01-11T12:01:12.993Z,91.00
2019-01-11T12:03:17.428Z,91.00
2019-01-11T12:05:22.756Z,91.00
2019-01-11T12:07:27.349Z,91.00
2019-01-11T12:09:31.717Z,91.10
2019-01-11T12:11:36.206Z,91.20
2019-01-11T12:13:40.547Z,91.30
2019-01-11T12:15:44.918Z,91.30
2019-01-11T12:17:49.837Z,91.40
2019-01-11T12:19:57.179Z,91.30
2019-01-11T12:22:01.698Z,91.30
2019-01-11T12:24:05.465Z,91.40
2019-01-11T12:26:09.928Z,91.30
2019-01-11T12:28:14.306Z,91.40
2019-01-11T12:30:18.841Z,91.50
2019-01-11T12:32:23.178Z,91.60
2019-01-11T12:34:27.661Z,91.50
2019-01-11T12:36:32.177Z,91.60
2019-01-11T12:38:36.707Z,91.60
2019-01-11T12:40:41.093Z,92.00
2019-01-11T12:42:45.694Z,91.90
2019-01-11T12:44:50.072Z,91.90
2019-01-11T12:46:54.507Z,92.00
2019-01-11T12:48:59.346Z,92.00
2019-01-11T12:51:03.778Z,92.00
2019-01-11T12:53:08.151Z,92.30
2019-01-11T12:55:12.682Z,92.00
2019-01-11T12:57:17.108Z,92.00
2019-01-11T12:59:21.548Z,92.10
2019-01-11T13:01:25.990Z,92.10
2019-01-11T13:03:30.823Z,92.10
2019-01-11T13:05:35.457Z,92.10
2019-01-11T13:07:39.854Z,92.10
2019-01-11T13:09:44.247Z,92.10
2019-01-11T13:11:48.666Z,92.10
2019-01-11T13:13:53.077Z,92.20
2019-01-11T13:15:57.506Z,92.10
2019-01-11T13:18:02.653Z,92.20
2019-01-11T13:20:09.004Z,92.20
2019-01-11T13:22:13.457Z,92.20
2019-01-11T13:24:17.932Z,92.20
2019-01-11T13:26:22.343Z,92.20
2019-01-11T13:28:26.857Z,92.20
2019-01-11T13:30:31.317Z,92.20
2019-01-11T13:32:35.832Z,92.20
2019-01-11T13:34:40.264Z,92.20
2019-01-11T13:36:44.711Z,92.20
2019-01-11T13:38:49.300Z,92.20
2019-01-11T13:40:53.737Z,92.20
2019-01-11T13:42:58.205Z,92.20
2019-01-11T13:45:02.681Z,92.20
2019-01-11T13:47:07.196Z,92.20
2019-01-11T13:49:11.619Z,92.20
2019-01-11T13:51:15.998Z,92.20
2019-01-11T13:53:20.974Z,92.30
2019-01-11T13:55:25.390Z,92.30
2019-01-11T13:57:29.866Z,92.20
2019-01-11T13:59:34.398Z,92.20
2019-01-11T14:01:38.863Z,92.20
2019-01-11T14:03:43.257Z,92.20
2019-01-11T14:05:47.714Z,92.30
2019-01-11T14:07:52.190Z,92.30
2019-01-11T14:09:56.661Z,92.30
2019-01-11T14:12:01.060Z,92.30
2019-01-11T14:14:05.682Z,92.30
2019-01-11T14:16:10.171Z,92.30
2019-01-11T14:18:14.610Z,92.30
2019-01-11T14:20:19.021Z,92.30
2019-01-11T14:22:23.490Z,92.30
2019-01-11T14:24:27.932Z,92.30
2019-01-11T14:26:32.826Z,92.30
2019-01-11T14:28:37.251Z,92.20
2019-01-11T14:30:41.667Z,92.20
2019-01-11T14:32:46.196Z,92.10
2019-01-11T14:34:50.615Z,92.10
2019-01-11T14:36:55.530Z,92.10
2019-01-11T14:38:59.578Z,92.10
2019-01-11T14:41:04.118Z,92.10
2019-01-11T14:43:08.616Z,92.00
2019-01-11T14:45:14.803Z,92.00
2019-01-11T14:47:19.465Z,92.00
2019-01-11T14:49:23.767Z,91.90
2019-01-11T14:51:28.258Z,92.00
2019-01-11T14:53:32.820Z,92.00
2019-01-11T14:55:37.257Z,92.00
2019-01-11T14:57:41.827Z,92.00
2019-01-11T14:59:46.279Z,92.00
2019-01-11T15:01:50.679Z,92.00
2019-01-11T15:03:55.144Z,92.00
2019-01-11T15:05:59.620Z,92.10
2019-01-11T15:08:04.195Z,92.10
2019-01-11T15:10:10.581Z,92.00
2019-01-11T15:12:14.974Z,91.90
2019-01-11T15:14:19.523Z,92.00
2019-01-11T15:16:23.901Z,91.90
2019-01-11T15:18:28.283Z,92.00
2019-01-11T15:20:32.657Z,92.00
2019-01-11T15:22:37.013Z,92.00
2019-01-11T15:24:41.415Z,92.10
2019-01-11T15:26:45.877Z,92.10
2019-01-11T15:28:50.258Z,92.00
2019-01-11T15:30:54.654Z,92.00
2019-01-11T15:32:59.047Z,92.00
2019-01-11T15:35:03.513Z,92.00
2019-01-11T15:37:08.082Z,92.00
2019-01-11T15:39:12.459Z,92.00
2019-01-11T15:41:16.863Z,92.00
2019-01-11T15:43:21.280Z,92.00
2019-01-11T15:45:25.676Z,92.00
2019-01-11T15:47:30.052Z,92.00
2019-01-11T15:49:34.490Z,92.10
2019-01-11T15:51:38.881Z,92.10
2019-01-11T15:53:43.326Z,92.10
2019-01-11T15:55:48.343Z,92.00
2019-01-11T15:57:52.780Z,92.00
2019-01-11T16:00:01.025Z,92.10
2019-01-11T16:02:05.515Z,92.00
2019-01-11T16:04:09.911Z,92.10
2019-01-11T16:06:22.814Z,92.10
2019-01-11T16:08:27.206Z,92.20
2019-01-11T16:10:31.598Z,92.20
2019-01-11T16:12:38.350Z,92.20
2019-01-11T16:14:59.815Z,92.30
2019-01-11T16:17:07.758Z,92.20
2019-01-11T16:19:12.161Z,92.20
2019-01-11T16:21:16.545Z,92.30
2019-01-11T16:23:21.135Z,92.30
2019-01-11T16:25:25.635Z,92.20
2019-01-11T16:27:30.178Z,92.30
2019-01-11T16:29:34.557Z,92.20
2019-01-11T16:31:38.925Z,92.60
2019-01-11T16:33:43.330Z,92.20
2019-01-11T16:35:47.730Z,92.20
2019-01-11T16:37:52.137Z,92.20
2019-01-11T16:40:03.183Z,92.20
2019-01-11T16:42:07.746Z,92.20
2019-01-11T16:44:12.163Z,92.30
2019-01-11T16:46:16.525Z,92.30
2019-01-11T16:48:20.928Z,92.20
2019-01-11T16:50:25.345Z,92.20
2019-01-11T16:52:29.766Z,92.20
2019-01-11T16:54:34.098Z,92.20
2019-01-11T16:56:38.479Z,92.10
2019-01-11T16:58:42.861Z,92.10
2019-01-11T17:00:47.250Z,92.20
2019-01-11T17:02:51.672Z,92.10
2019-01-11T17:04:56.074Z,92.10
2019-01-11T17:07:00.461Z,92.20
2019-01-11T17:09:07.625Z,92.20
2019-01-11T17:11:12.038Z,92.20
2019-01-11T17:13:16.398Z,92.20
2019-01-11T17:15:20.819Z,92.10
2019-01-11T17:17:25.490Z,92.20
2019-01-11T17:19:29.861Z,92.10
2019-01-11T17:21:34.305Z,92.10
2019-01-11T17:23:38.922Z,92.10
2019-01-11T17:25:43.279Z,92.00
2019-01-11T17:27:47.729Z,92.10
2019-01-11T17:29:53.183Z,91.80
2019-01-11T17:31:57.556Z,91.90
2019-01-11T17:34:01.974Z,91.80
2019-01-11T17:36:06.562Z,91.70
2019-01-11T17:38:10.985Z,91.60
2019-01-11T17:40:16.208Z,91.60
2019-01-11T17:42:20.635Z,91.60
2019-01-11T17:44:25.133Z,91.50
2019-01-11T17:46:29.586Z,91.40
2019-01-11T17:48:34.029Z,91.40
2019-01-11T17:50:38.490Z,91.50
2019-01-11T17:52:42.975Z,91.40
2019-01-11T17:54:47.459Z,91.50
2019-01-11T17:56:51.933Z,91.50
2019-01-11T17:58:56.490Z,91.50
2019-01-11T18:01:01.111Z,91.60
2019-01-11T18:03:05.832Z,91.50
2019-01-11T18:05:10.726Z,91.40
2019-01-11T18:07:15.146Z,91.50
2019-01-11T18:09:19.854Z,91.50
2019-01-11T18:11:24.402Z,91.50
2019-01-11T18:13:28.866Z,91.60
2019-01-11T18:15:33.558Z,91.50
2019-01-11T18:17:38.044Z,91.50
2019-01-11T18:19:42.578Z,91.50
2019-01-11T18:21:46.971Z,91.60
2019-01-11T18:23:51.395Z,91.60
2019-01-11T18:25:57.498Z,91.60
2019-01-11T18:28:00.681Z,91.50
2019-01-11T18:30:06.717Z,91.60
2019-01-11T18:32:11.178Z,91.50
2019-01-11T18:34:15.682Z,91.50
2019-01-11T18:36:20.101Z,91.50
2019-01-11T18:38:24.598Z,91.50
2019-01-11T18:40:29.045Z,91.50
2019-01-11T18:42:33.458Z,91.60
2019-01-11T18:44:37.895Z,91.60
2019-01-11T18:46:42.508Z,91.60
2019-01-11T18:48:47.061Z,91.60
2019-01-11T18:50:51.471Z,91.60
2019-01-11T18:52:55.951Z,91.60
2019-01-11T18:55:01.186Z,91.70
2019-01-11T18:57:05.053Z,91.70
2019-01-11T18:59:09.422Z,91.80
2019-01-11T19:01:13.826Z,91.80
2019-01-11T19:03:18.355Z,92.10
2019-01-11T19:05:22.789Z,91.80
2019-01-11T19:07:27.230Z,91.80
2019-01-11T19:09:31.694Z,91.70
2019-01-11T19:11:36.172Z,91.80
2019-01-11T19:13:40.590Z,91.80
2019-01-11T19:15:44.962Z,91.70
2019-01-11T19:17:49.391Z,91.60
2019-01-11T19:19:53.770Z,91.60
2019-01-11T19:21:58.681Z,91.60
2019-01-11T19:24:03.067Z,91.60
2019-01-11T19:26:07.514Z,91.50
2019-01-11T19:28:11.922Z,91.60
2019-01-11T19:30:20.930Z,91.60
2019-01-11T19:32:26.304Z,91.70
2019-01-11T19:34:30.990Z,91.80
2019-01-11T19:36:35.408Z,91.80
2019-01-11T19:38:39.834Z,91.80
2019-01-11T19:40:44.267Z,91.80
2019-01-11T19:42:48.767Z,91.80
2019-01-11T19:44:53.170Z,91.80
2019-01-11T19:46:57.589Z,91.80
2019-01-11T19:49:02.035Z,91.80
2019-01-11T19:51:06.579Z,91.80
2019-01-11T19:53:11.250Z,91.80
2019-01-11T19:55:15.899Z,91.70
2019-01-11T19:57:20.439Z,91.70
2019-01-11T19:59:24.948Z,91.50
2019-01-11T20:01:29.525Z,91.50
2019-01-11T20:03:33.915Z,91.50
2019-01-11T20:05:39.011Z,91.50
2019-01-11T20:07:43.716Z,91.50
2019-01-11T20:09:48.203Z,91.50
2019-01-11T20:11:52.834Z,91.50
2019-01-11T20:13:57.340Z,91.50
2019-01-11T20:16:01.947Z,91.60
2019-01-11T20:18:06.523Z,91.10
2019-01-11T20:20:12.266Z,91.10
2019-01-11T20:22:16.739Z,91.40
2019-01-11T20:24:21.352Z,91.50
2019-01-11T20:26:25.826Z,91.60
2019-01-11T20:28:30.330Z,91.50
2019-01-11T20:30:34.929Z,91.50
2019-01-11T20:32:39.388Z,91.50
2019-01-11T20:34:43.834Z,91.50
2019-01-11T20:36:57.748Z,91.60
2019-01-11T20:39:02.746Z,91.50
2019-01-11T20:41:07.332Z,91.50
2019-01-11T20:43:11.786Z,91.50
2019-01-11T20:45:18.173Z,91.60
2019-01-11T20:47:22.600Z,91.50
2019-01-11T20:49:27.039Z,91.50
2019-01-11T20:51:31.466Z,91.50
2019-01-11T20:53:41.592Z,91.50
2019-01-11T20:55:40.251Z,91.50
2019-01-11T20:57:44.889Z,91.40
2019-01-11T20:59:49.281Z,91.40
2019-01-11T21:01:53.727Z,91.40
2019-01-11T21:03:58.272Z,91.40
2019-01-11T21:06:02.787Z,91.40
2019-01-11T21:08:07.288Z,91.40
2019-01-11T21:10:11.918Z,91.30
2019-01-11T21:12:16.260Z,91.30
2019-01-11T21:14:20.666Z,91.20
2019-01-11T21:16:25.082Z,91.20
2019-01-11T21:18:29.495Z,91.20
2019-01-11T21:20:33.952Z,91.10
2019-01-11T21:22:38.415Z,91.20
2019-01-11T21:24:42.853Z,91.20
2019-01-11T21:26:47.256Z,91.20
2019-01-11T21:28:51.611Z,91.10
2019-01-11T21:30:57.475Z,91.10
2019-01-11T21:33:01.434Z,91.20
2019-01-11T21:35:06.363Z,91.20
2019-01-11T21:37:10.834Z,91.30
2019-01-11T21:39:15.228Z,91.40
2019-01-11T21:41:19.686Z,91.40
2019-01-11T21:43:24.075Z,91.40
2019-01-11T21:45:28.674Z,91.40
2019-01-11T21:47:33.203Z,91.40
2019-01-11T21:49:37.619Z,91.50
2019-01-11T21:51:42.030Z,91.60
2019-01-11T21:53:46.555Z,91.60
2019-01-11T21:55:50.950Z,91.70
2019-01-11T21:57:55.379Z,91.70
2019-01-11T22:00:00.594Z,91.80
2019-01-11T22:02:05.047Z,91.80
2019-01-11T22:04:09.421Z,91.80
2019-01-11T22:06:13.925Z,91.80
2019-01-11T22:08:18.413Z,91.80
2019-01-11T22:10:22.870Z,91.80
2019-01-11T22:12:27.270Z,91.80
2019-01-11T22:14:31.669Z,91.80
2019-01-11T22:16:36.150Z,91.90
2019-01-11T22:18:40.669Z,91.90
2019-01-11T22:20:45.072Z,91.90
2019-01-11T22:22:49.537Z,91.90
2019-01-11T22:24:53.965Z,91.90
2019-01-11T22:26:58.645Z,91.80
2019-01-11T22:29:03.446Z,91.70
2019-01-11T22:31:07.858Z,91.60
2019-01-11T22:33:12.248Z,91.60
2019-01-11T22:35:18.310Z,91.50
2019-01-11T22:37:21.225Z,91.50
2019-01-11T22:39:25.599Z,91.50
2019-01-11T22:41:29.947Z,91.40
2019-01-11T22:43:34.438Z,91.40
2019-01-11T22:45:38.844Z,91.40
2019-01-11T22:47:43.219Z,91.40
2019-01-11T22:49:47.635Z,91.50
2019-01-11T22:51:51.971Z,91.50
2019-01-11T22:53:56.582Z,91.50
2019-01-11T22:56:01.026Z,91.50
2019-01-11T22:58:05.413Z,91.60
2019-01-11T23:02:22.470Z,91.50
2019-01-11T23:04:26.821Z,91.60
2019-01-11T23:06:43.696Z,91.60
2019-01-11T23:08:48.055Z,91.50
2019-01-11T23:13:01.643Z,91.50
2019-01-11T23:15:10.523Z,91.50
2019-01-11T23:17:24.564Z,91.40
2019-01-11T23:19:28.981Z,91.40
2019-01-11T23:21:33.329Z,91.70
2019-01-11T23:23:37.687Z,91.40
2019-01-11T23:25:42.093Z,91.50
2019-01-11T23:27:46.514Z,91.40
2019-01-11T23:29:50.896Z,91.40
2019-01-11T23:31:55.277Z,91.50
2019-01-11T23:33:59.637Z,91.60
2019-01-11T23:36:04.080Z,91.60
2019-01-11T23:38:08.515Z,91.60
2019-01-11T23:40:15.159Z,91.60
2019-01-11T23:42:19.640Z,91.70
2019-01-11T23:44:23.990Z,91.60
2019-01-11T23:46:28.443Z,91.60
2019-01-11T23:48:32.771Z,91.60
2019-01-11T23:50:37.219Z,91.60
2019-01-11T23:52:41.564Z,91.60
2019-01-11T23:54:45.898Z,91.60
2019-01-11T23:56:50.305Z,91.60
2019-01-11T23:58:54.674Z,91.60
